sensor_id;sensor_type;location;lat;lon;timestamp;P1;durP1;ratioP1;P2;durP2;ratioP2
6358;SDS011;3212;51.460;11.868;2023-05-18T00:01:09;9.60;;;3.20;;
6358;SDS011;3212;51.460;11.868;2023-05-18T00:04:32;9.87;;;2.80;;
6358;SDS011;3212;51.460;11.868;2023-05-18T00:07:53;6.60;;;2.77;;
6358;SDS011;3212;51.460;11.868;2023-05-18T00:11:15;6.33;;;2.83;;
6358;SDS011;3212;51.460;11.868;2023-05-18T00:14:36;5.70;;;3.10;;
6358;SDS011;3212;51.460;11.868;2023-05-18T00:17:58;9.17;;;2.70;;
6358;SDS011;3212;51.460;11.868;2023-05-18T00:21:20;6.23;;;3.10;;
6358;SDS011;3212;51.460;11.868;2023-05-18T00:24:42;5.50;;;2.70;;
6358;SDS011;3212;51.460;11.868;2023-05-18T00:28:04;5.50;;;3.00;;
6358;SDS011;3212;51.460;11.868;2023-05-18T00:31:26;9.37;;;3.27;;
6358;SDS011;3212;51.460;11.868;2023-05-18T00:34:48;7.03;;;2.50;;
6358;SDS011;3212;51.460;11.868;2023-05-18T00:38:11;4.03;;;2.80;;
6358;SDS011;3212;51.460;11.868;2023-05-18T00:41:33;4.13;;;2.80;;
6358;SDS011;3212;51.460;11.868;2023-05-18T00:44:55;10.43;;;2.80;;
6358;SDS011;3212;51.460;11.868;2023-05-18T00:48:17;9.80;;;3.10;;
6358;SDS011;3212;51.460;11.868;2023-05-18T00:51:38;13.53;;;2.80;;
6358;SDS011;3212;51.460;11.868;2023-05-18T00:55:00;6.50;;;3.27;;
6358;SDS011;3212;51.460;11.868;2023-05-18T00:58:22;5.27;;;3.00;;
6358;SDS011;3212;51.460;11.868;2023-05-18T01:01:44;5.43;;;3.30;;
6358;SDS011;3212;51.460;11.868;2023-05-18T01:05:06;6.20;;;2.93;;
6358;SDS011;3212;51.460;11.868;2023-05-18T01:08:28;3.60;;;2.70;;
6358;SDS011;3212;51.460;11.868;2023-05-18T01:11:54;5.93;;;2.80;;
6358;SDS011;3212;51.460;11.868;2023-05-18T01:15:18;7.67;;;3.67;;
6358;SDS011;3212;51.460;11.868;2023-05-18T01:18:42;7.13;;;3.30;;
6358;SDS011;3212;51.460;11.868;2023-05-18T01:22:04;7.10;;;2.97;;
6358;SDS011;3212;51.460;11.868;2023-05-18T01:29:08;6.70;;;3.27;;
6358;SDS011;3212;51.460;11.868;2023-05-18T01:32:28;5.83;;;3.30;;
6358;SDS011;3212;51.460;11.868;2023-05-18T01:35:51;5.83;;;3.53;;
6358;SDS011;3212;51.460;11.868;2023-05-18T01:39:12;6.97;;;3.30;;
6358;SDS011;3212;51.460;11.868;2023-05-18T01:42:37;11.17;;;4.00;;
6358;SDS011;3212;51.460;11.868;2023-05-18T01:45:59;9.73;;;4.03;;
6358;SDS011;3212;51.460;11.868;2023-05-18T01:52:57;7.73;;;3.97;;
6358;SDS011;3212;51.460;11.868;2023-05-18T01:56:18;14.93;;;4.10;;
6358;SDS011;3212;51.460;11.868;2023-05-18T01:59:40;10.97;;;4.10;;
6358;SDS011;3212;51.460;11.868;2023-05-18T02:03:02;10.80;;;3.53;;
6358;SDS011;3212;51.460;11.868;2023-05-18T02:06:24;9.27;;;3.50;;
6358;SDS011;3212;51.460;11.868;2023-05-18T02:09:45;9.40;;;4.07;;
6358;SDS011;3212;51.460;11.868;2023-05-18T02:13:08;6.40;;;3.97;;
6358;SDS011;3212;51.460;11.868;2023-05-18T02:16:30;10.80;;;3.85;;
6358;SDS011;3212;51.460;11.868;2023-05-18T02:19:52;12.57;;;4.00;;
6358;SDS011;3212;51.460;11.868;2023-05-18T02:23:14;8.03;;;3.63;;
6358;SDS011;3212;51.460;11.868;2023-05-18T02:26:36;9.30;;;3.67;;
6358;SDS011;3212;51.460;11.868;2023-05-18T02:29:58;10.50;;;4.03;;
6358;SDS011;3212;51.460;11.868;2023-05-18T02:33:20;7.57;;;3.50;;
6358;SDS011;3212;51.460;11.868;2023-05-18T02:36:42;10.33;;;4.00;;
6358;SDS011;3212;51.460;11.868;2023-05-18T02:40:05;10.53;;;3.80;;
6358;SDS011;3212;51.460;11.868;2023-05-18T02:43:30;9.20;;;3.75;;
6358;SDS011;3212;51.460;11.868;2023-05-18T02:46:52;8.53;;;3.50;;
6358;SDS011;3212;51.460;11.868;2023-05-18T02:50:14;5.47;;;3.70;;
6358;SDS011;3212;51.460;11.868;2023-05-18T02:53:36;7.93;;;3.77;;
6358;SDS011;3212;51.460;11.868;2023-05-18T02:56:58;8.60;;;2.90;;
6358;SDS011;3212;51.460;11.868;2023-05-18T03:00:20;9.40;;;3.60;;
6358;SDS011;3212;51.460;11.868;2023-05-18T03:03:41;6.00;;;3.17;;
6358;SDS011;3212;51.460;11.868;2023-05-18T03:07:03;9.03;;;3.40;;
6358;SDS011;3212;51.460;11.868;2023-05-18T03:10:26;6.53;;;3.30;;
6358;SDS011;3212;51.460;11.868;2023-05-18T03:13:48;4.43;;;2.93;;
6358;SDS011;3212;51.460;11.868;2023-05-18T03:17:09;5.83;;;3.03;;
6358;SDS011;3212;51.460;11.868;2023-05-18T03:20:31;7.20;;;3.37;;
6358;SDS011;3212;51.460;11.868;2023-05-18T03:23:53;6.33;;;3.13;;
6358;SDS011;3212;51.460;11.868;2023-05-18T03:27:15;9.20;;;3.00;;
6358;SDS011;3212;51.460;11.868;2023-05-18T03:30:37;6.57;;;2.83;;
6358;SDS011;3212;51.460;11.868;2023-05-18T03:33:59;7.73;;;3.00;;
6358;SDS011;3212;51.460;11.868;2023-05-18T03:37:21;10.23;;;3.53;;
6358;SDS011;3212;51.460;11.868;2023-05-18T03:40:42;7.40;;;3.60;;
6358;SDS011;3212;51.460;11.868;2023-05-18T03:44:04;4.80;;;3.17;;
6358;SDS011;3212;51.460;11.868;2023-05-18T03:47:26;7.87;;;2.70;;
6358;SDS011;3212;51.460;11.868;2023-05-18T03:50:48;4.87;;;3.00;;
6358;SDS011;3212;51.460;11.868;2023-05-18T03:54:10;7.37;;;2.77;;
6358;SDS011;3212;51.460;11.868;2023-05-18T03:57:32;10.73;;;3.50;;
6358;SDS011;3212;51.460;11.868;2023-05-18T04:00:53;4.10;;;3.00;;
6358;SDS011;3212;51.460;11.868;2023-05-18T04:04:15;5.40;;;2.90;;
6358;SDS011;3212;51.460;11.868;2023-05-18T04:07:37;7.87;;;2.90;;
6358;SDS011;3212;51.460;11.868;2023-05-18T04:10:59;5.30;;;3.03;;
6358;SDS011;3212;51.460;11.868;2023-05-18T04:14:21;7.70;;;3.43;;
6358;SDS011;3212;51.460;11.868;2023-05-18T04:17:42;6.90;;;3.30;;
6358;SDS011;3212;51.460;11.868;2023-05-18T04:21:04;8.03;;;2.60;;
6358;SDS011;3212;51.460;11.868;2023-05-18T04:24:26;7.87;;;3.37;;
6358;SDS011;3212;51.460;11.868;2023-05-18T04:27:48;5.00;;;2.90;;
6358;SDS011;3212;51.460;11.868;2023-05-18T04:31:10;4.73;;;2.67;;
6358;SDS011;3212;51.460;11.868;2023-05-18T04:34:32;8.83;;;2.57;;
6358;SDS011;3212;51.460;11.868;2023-05-18T04:37:54;5.30;;;3.03;;
6358;SDS011;3212;51.460;11.868;2023-05-18T04:41:16;4.97;;;2.70;;
6358;SDS011;3212;51.460;11.868;2023-05-18T04:44:38;9.23;;;3.27;;
6358;SDS011;3212;51.460;11.868;2023-05-18T04:48:00;7.77;;;3.07;;
6358;SDS011;3212;51.460;11.868;2023-05-18T04:51:23;7.33;;;3.23;;
6358;SDS011;3212;51.460;11.868;2023-05-18T04:54:46;4.70;;;3.20;;
6358;SDS011;3212;51.460;11.868;2023-05-18T04:58:07;2.60;;;2.23;;
6358;SDS011;3212;51.460;11.868;2023-05-18T05:01:29;7.27;;;3.00;;
6358;SDS011;3212;51.460;11.868;2023-05-18T05:04:52;8.40;;;3.07;;
6358;SDS011;3212;51.460;11.868;2023-05-18T05:08:14;6.72;;;2.75;;
6358;SDS011;3212;51.460;11.868;2023-05-18T05:11:35;4.30;;;2.90;;
6358;SDS011;3212;51.460;11.868;2023-05-18T05:14:57;5.60;;;2.67;;
6358;SDS011;3212;51.460;11.868;2023-05-18T05:18:19;9.03;;;2.53;;
6358;SDS011;3212;51.460;11.868;2023-05-18T05:21:41;4.87;;;2.70;;
6358;SDS011;3212;51.460;11.868;2023-05-18T05:25:03;6.60;;;2.90;;
6358;SDS011;3212;51.460;11.868;2023-05-18T05:28:25;6.70;;;2.70;;
6358;SDS011;3212;51.460;11.868;2023-05-18T05:31:48;5.73;;;3.20;;
6358;SDS011;3212;51.460;11.868;2023-05-18T05:35:10;4.43;;;2.47;;
6358;SDS011;3212;51.460;11.868;2023-05-18T05:38:32;6.30;;;2.70;;
6358;SDS011;3212;51.460;11.868;2023-05-18T05:41:54;4.57;;;2.50;;
6358;SDS011;3212;51.460;11.868;2023-05-18T05:45:15;3.63;;;2.30;;
6358;SDS011;3212;51.460;11.868;2023-05-18T05:48:37;7.30;;;3.00;;
6358;SDS011;3212;51.460;11.868;2023-05-18T05:51:59;6.93;;;2.30;;
6358;SDS011;3212;51.460;11.868;2023-05-18T05:55:22;3.33;;;1.97;;
6358;SDS011;3212;51.460;11.868;2023-05-18T05:58:44;3.70;;;2.40;;
6358;SDS011;3212;51.460;11.868;2023-05-18T06:02:06;6.93;;;2.47;;
6358;SDS011;3212;51.460;11.868;2023-05-18T06:05:28;5.53;;;2.33;;
6358;SDS011;3212;51.460;11.868;2023-05-18T06:08:50;5.33;;;2.10;;
6358;SDS011;3212;51.460;11.868;2023-05-18T06:12:12;3.67;;;2.07;;
6358;SDS011;3212;51.460;11.868;2023-05-18T06:15:34;4.57;;;1.97;;
6358;SDS011;3212;51.460;11.868;2023-05-18T06:18:56;6.47;;;2.13;;
6358;SDS011;3212;51.460;11.868;2023-05-18T06:22:18;6.73;;;2.30;;
6358;SDS011;3212;51.460;11.868;2023-05-18T06:25:40;4.57;;;2.13;;
6358;SDS011;3212;51.460;11.868;2023-05-18T06:29:02;2.60;;;1.60;;
6358;SDS011;3212;51.460;11.868;2023-05-18T06:32:23;5.47;;;1.80;;
6358;SDS011;3212;51.460;11.868;2023-05-18T06:35:49;5.20;;;1.90;;
6358;SDS011;3212;51.460;11.868;2023-05-18T06:39:11;8.83;;;2.20;;
6358;SDS011;3212;51.460;11.868;2023-05-18T06:42:33;3.30;;;1.60;;
6358;SDS011;3212;51.460;11.868;2023-05-18T06:45:57;2.92;;;1.80;;
6358;SDS011;3212;51.460;11.868;2023-05-18T06:49:19;4.40;;;1.80;;
6358;SDS011;3212;51.460;11.868;2023-05-18T06:52:41;3.33;;;1.80;;
6358;SDS011;3212;51.460;11.868;2023-05-18T06:56:04;3.57;;;1.60;;
6358;SDS011;3212;51.460;11.868;2023-05-18T06:59:27;2.30;;;1.30;;
6358;SDS011;3212;51.460;11.868;2023-05-18T07:02:49;6.07;;;1.67;;
6358;SDS011;3212;51.460;11.868;2023-05-18T07:06:11;4.13;;;1.93;;
6358;SDS011;3212;51.460;11.868;2023-05-18T07:09:33;5.82;;;2.20;;
6358;SDS011;3212;51.460;11.868;2023-05-18T07:12:55;7.77;;;2.27;;
6358;SDS011;3212;51.460;11.868;2023-05-18T07:16:17;3.00;;;1.50;;
6358;SDS011;3212;51.460;11.868;2023-05-18T07:19:39;5.77;;;2.10;;
6358;SDS011;3212;51.460;11.868;2023-05-18T07:23:01;1.97;;;1.53;;
6358;SDS011;3212;51.460;11.868;2023-05-18T07:26:23;6.77;;;1.80;;
6358;SDS011;3212;51.460;11.868;2023-05-18T07:29:45;8.40;;;1.93;;
6358;SDS011;3212;51.460;11.868;2023-05-18T07:33:07;8.03;;;2.10;;
6358;SDS011;3212;51.460;11.868;2023-05-18T07:36:29;4.87;;;1.67;;
6358;SDS011;3212;51.460;11.868;2023-05-18T07:39:51;5.20;;;1.70;;
6358;SDS011;3212;51.460;11.868;2023-05-18T07:43:12;10.33;;;1.90;;
6358;SDS011;3212;51.460;11.868;2023-05-18T07:46:34;3.33;;;2.00;;
6358;SDS011;3212;51.460;11.868;2023-05-18T07:49:56;2.70;;;1.53;;
6358;SDS011;3212;51.460;11.868;2023-05-18T07:53:18;4.03;;;1.90;;
6358;SDS011;3212;51.460;11.868;2023-05-18T07:56:40;3.27;;;1.50;;
6358;SDS011;3212;51.460;11.868;2023-05-18T08:00:02;4.23;;;1.90;;
6358;SDS011;3212;51.460;11.868;2023-05-18T08:03:24;5.10;;;1.80;;
6358;SDS011;3212;51.460;11.868;2023-05-18T08:06:45;7.65;;;1.55;;
6358;SDS011;3212;51.460;11.868;2023-05-18T08:10:08;2.93;;;1.43;;
6358;SDS011;3212;51.460;11.868;2023-05-18T08:13:32;4.97;;;1.50;;
6358;SDS011;3212;51.460;11.868;2023-05-18T08:16:54;5.97;;;1.77;;
6358;SDS011;3212;51.460;11.868;2023-05-18T08:20:16;4.40;;;1.40;;
6358;SDS011;3212;51.460;11.868;2023-05-18T08:23:38;4.60;;;1.70;;
6358;SDS011;3212;51.460;11.868;2023-05-18T08:26:59;3.67;;;1.60;;
6358;SDS011;3212;51.460;11.868;2023-05-18T08:30:21;9.20;;;1.80;;
6358;SDS011;3212;51.460;11.868;2023-05-18T08:33:43;4.27;;;1.73;;
6358;SDS011;3212;51.460;11.868;2023-05-18T08:37:05;2.00;;;1.23;;
6358;SDS011;3212;51.460;11.868;2023-05-18T08:40:31;4.70;;;1.20;;
6358;SDS011;3212;51.460;11.868;2023-05-18T08:43:52;7.47;;;1.70;;
6358;SDS011;3212;51.460;11.868;2023-05-18T08:47:10;2.20;;;1.47;;
6358;SDS011;3212;51.460;11.868;2023-05-18T08:50:33;3.33;;;1.40;;
6358;SDS011;3212;51.460;11.868;2023-05-18T08:53:55;4.37;;;1.60;;
6358;SDS011;3212;51.460;11.868;2023-05-18T08:57:17;4.00;;;1.37;;
6358;SDS011;3212;51.460;11.868;2023-05-18T09:00:39;3.23;;;1.40;;
6358;SDS011;3212;51.460;11.868;2023-05-18T09:04:01;8.13;;;1.80;;
6358;SDS011;3212;51.460;11.868;2023-05-18T09:07:23;4.00;;;1.70;;
6358;SDS011;3212;51.460;11.868;2023-05-18T09:10:46;1.90;;;1.40;;
6358;SDS011;3212;51.460;11.868;2023-05-18T09:14:08;6.17;;;1.70;;
6358;SDS011;3212;51.460;11.868;2023-05-18T09:17:30;4.33;;;1.57;;
6358;SDS011;3212;51.460;11.868;2023-05-18T09:20:52;3.67;;;1.47;;
6358;SDS011;3212;51.460;11.868;2023-05-18T09:24:14;4.40;;;1.60;;
6358;SDS011;3212;51.460;11.868;2023-05-18T09:27:36;2.83;;;1.60;;
6358;SDS011;3212;51.460;11.868;2023-05-18T09:30:58;2.20;;;1.50;;
6358;SDS011;3212;51.460;11.868;2023-05-18T09:34:20;5.40;;;1.87;;
6358;SDS011;3212;51.460;11.868;2023-05-18T09:37:42;7.67;;;1.97;;
6358;SDS011;3212;51.460;11.868;2023-05-18T09:41:08;6.30;;;1.77;;
6358;SDS011;3212;51.460;11.868;2023-05-18T09:44:31;3.63;;;1.47;;
6358;SDS011;3212;51.460;11.868;2023-05-18T09:47:53;5.03;;;1.70;;
6358;SDS011;3212;51.460;11.868;2023-05-18T09:51:15;4.10;;;1.40;;
6358;SDS011;3212;51.460;11.868;2023-05-18T09:54:37;4.10;;;1.77;;
6358;SDS011;3212;51.460;11.868;2023-05-18T09:57:58;4.13;;;1.57;;
6358;SDS011;3212;51.460;11.868;2023-05-18T10:01:20;5.80;;;1.70;;
6358;SDS011;3212;51.460;11.868;2023-05-18T10:04:42;6.27;;;1.60;;
6358;SDS011;3212;51.460;11.868;2023-05-18T10:08:04;3.03;;;1.50;;
6358;SDS011;3212;51.460;11.868;2023-05-18T10:11:29;3.73;;;1.73;;
6358;SDS011;3212;51.460;11.868;2023-05-18T10:14:48;3.90;;;1.70;;
6358;SDS011;3212;51.460;11.868;2023-05-18T10:18:09;5.80;;;1.70;;
6358;SDS011;3212;51.460;11.868;2023-05-18T10:21:31;3.83;;;1.83;;
6358;SDS011;3212;51.460;11.868;2023-05-18T10:24:53;4.93;;;1.63;;
6358;SDS011;3212;51.460;11.868;2023-05-18T10:28:19;8.00;;;1.77;;
6358;SDS011;3212;51.460;11.868;2023-05-18T10:31:40;3.03;;;1.70;;
6358;SDS011;3212;51.460;11.868;2023-05-18T10:35:02;2.55;;;1.50;;
6358;SDS011;3212;51.460;11.868;2023-05-18T10:38:25;8.60;;;4.00;;
6358;SDS011;3212;51.460;11.868;2023-05-18T10:41:46;7.90;;;2.80;;
6358;SDS011;3212;51.460;11.868;2023-05-18T10:45:08;2.07;;;1.70;;
6358;SDS011;3212;51.460;11.868;2023-05-18T10:48:30;3.00;;;1.50;;
6358;SDS011;3212;51.460;11.868;2023-05-18T10:51:52;2.57;;;1.80;;
6358;SDS011;3212;51.460;11.868;2023-05-18T10:55:14;3.73;;;2.00;;
6358;SDS011;3212;51.460;11.868;2023-05-18T10:58:36;6.00;;;1.93;;
6358;SDS011;3212;51.460;11.868;2023-05-18T11:01:58;4.07;;;1.30;;
6358;SDS011;3212;51.460;11.868;2023-05-18T11:05:22;3.23;;;1.20;;
6358;SDS011;3212;51.460;11.868;2023-05-18T11:08:46;7.13;;;1.40;;
6358;SDS011;3212;51.460;11.868;2023-05-18T11:12:12;3.40;;;1.47;;
6358;SDS011;3212;51.460;11.868;2023-05-18T11:19:07;6.87;;;1.87;;
6358;SDS011;3212;51.460;11.868;2023-05-18T11:26:03;5.30;;;1.83;;
6358;SDS011;3212;51.460;11.868;2023-05-18T11:29:29;2.90;;;1.50;;
6358;SDS011;3212;51.460;11.868;2023-05-18T11:32:51;4.60;;;1.73;;
6358;SDS011;3212;51.460;11.868;2023-05-18T11:36:13;4.90;;;2.97;;
6358;SDS011;3212;51.460;11.868;2023-05-18T11:39:35;3.67;;;1.57;;
6358;SDS011;3212;51.460;11.868;2023-05-18T11:42:57;3.60;;;1.83;;
6358;SDS011;3212;51.460;11.868;2023-05-18T11:46:19;5.63;;;2.43;;
6358;SDS011;3212;51.460;11.868;2023-05-18T11:49:42;9.40;;;2.80;;
6358;SDS011;3212;51.460;11.868;2023-05-18T11:53:04;4.43;;;2.30;;
6358;SDS011;3212;51.460;11.868;2023-05-18T11:56:26;2.47;;;1.50;;
6358;SDS011;3212;51.460;11.868;2023-05-18T11:59:51;4.67;;;1.60;;
6358;SDS011;3212;51.460;11.868;2023-05-18T12:03:09;4.10;;;2.03;;
6358;SDS011;3212;51.460;11.868;2023-05-18T12:06:31;2.53;;;1.40;;
6358;SDS011;3212;51.460;11.868;2023-05-18T12:10:00;7.80;;;1.60;;
6358;SDS011;3212;51.460;11.868;2023-05-18T12:13:21;2.60;;;1.50;;
6358;SDS011;3212;51.460;11.868;2023-05-18T12:16:43;2.47;;;1.20;;
6358;SDS011;3212;51.460;11.868;2023-05-18T12:20:06;5.17;;;1.43;;
6358;SDS011;3212;51.460;11.868;2023-05-18T12:23:35;6.20;;;1.80;;
6358;SDS011;3212;51.460;11.868;2023-05-18T12:26:56;4.63;;;1.70;;
6358;SDS011;3212;51.460;11.868;2023-05-18T12:30:18;2.03;;;1.47;;
6358;SDS011;3212;51.460;11.868;2023-05-18T12:33:41;3.83;;;1.57;;
6358;SDS011;3212;51.460;11.868;2023-05-18T12:37:01;5.77;;;1.90;;
6358;SDS011;3212;51.460;11.868;2023-05-18T12:40:23;3.67;;;1.57;;
6358;SDS011;3212;51.460;11.868;2023-05-18T12:43:46;5.20;;;1.60;;
6358;SDS011;3212;51.460;11.868;2023-05-18T12:47:09;2.87;;;1.37;;
6358;SDS011;3212;51.460;11.868;2023-05-18T12:50:31;3.50;;;1.70;;
6358;SDS011;3212;51.460;11.868;2023-05-18T12:53:53;3.73;;;1.60;;
6358;SDS011;3212;51.460;11.868;2023-05-18T12:57:15;2.93;;;1.50;;
6358;SDS011;3212;51.460;11.868;2023-05-18T13:00:37;2.70;;;1.40;;
6358;SDS011;3212;51.460;11.868;2023-05-18T13:03:59;3.73;;;1.57;;
6358;SDS011;3212;51.460;11.868;2023-05-18T13:07:20;1.40;;;1.30;;
6358;SDS011;3212;51.460;11.868;2023-05-18T13:10:43;4.23;;;1.60;;
6358;SDS011;3212;51.460;11.868;2023-05-18T13:14:06;4.60;;;1.50;;
6358;SDS011;3212;51.460;11.868;2023-05-18T13:17:27;3.00;;;1.37;;
6358;SDS011;3212;51.460;11.868;2023-05-18T13:20:50;5.97;;;1.60;;
6358;SDS011;3212;51.460;11.868;2023-05-18T13:24:11;4.00;;;1.30;;
6358;SDS011;3212;51.460;11.868;2023-05-18T13:27:33;3.43;;;1.23;;
6358;SDS011;3212;51.460;11.868;2023-05-18T13:30:55;3.47;;;1.33;;
6358;SDS011;3212;51.460;11.868;2023-05-18T13:34:17;3.30;;;1.47;;
6358;SDS011;3212;51.460;11.868;2023-05-18T13:37:39;2.80;;;1.60;;
6358;SDS011;3212;51.460;11.868;2023-05-18T13:41:01;5.40;;;2.30;;
6358;SDS011;3212;51.460;11.868;2023-05-18T13:44:23;2.00;;;1.67;;
6358;SDS011;3212;51.460;11.868;2023-05-18T13:47:45;3.67;;;1.33;;
6358;SDS011;3212;51.460;11.868;2023-05-18T13:51:06;4.27;;;1.40;;
6358;SDS011;3212;51.460;11.868;2023-05-18T13:54:28;4.73;;;1.40;;
6358;SDS011;3212;51.460;11.868;2023-05-18T13:57:50;7.50;;;1.80;;
6358;SDS011;3212;51.460;11.868;2023-05-18T14:01:12;6.23;;;1.67;;
6358;SDS011;3212;51.460;11.868;2023-05-18T14:04:35;2.80;;;1.90;;
6358;SDS011;3212;51.460;11.868;2023-05-18T14:07:57;2.67;;;1.57;;
6358;SDS011;3212;51.460;11.868;2023-05-18T14:11:19;3.53;;;1.47;;
6358;SDS011;3212;51.460;11.868;2023-05-18T14:14:41;3.57;;;1.30;;
6358;SDS011;3212;51.460;11.868;2023-05-18T14:18:03;3.90;;;1.60;;
6358;SDS011;3212;51.460;11.868;2023-05-18T14:21:25;5.90;;;1.80;;
6358;SDS011;3212;51.460;11.868;2023-05-18T14:24:47;4.97;;;1.50;;
6358;SDS011;3212;51.460;11.868;2023-05-18T14:28:09;5.07;;;1.70;;
6358;SDS011;3212;51.460;11.868;2023-05-18T14:31:30;3.50;;;1.87;;
6358;SDS011;3212;51.460;11.868;2023-05-18T14:34:52;8.90;;;1.63;;
6358;SDS011;3212;51.460;11.868;2023-05-18T14:38:14;4.27;;;1.50;;
6358;SDS011;3212;51.460;11.868;2023-05-18T14:41:36;6.33;;;2.80;;
6358;SDS011;3212;51.460;11.868;2023-05-18T14:44:58;3.43;;;1.10;;
6358;SDS011;3212;51.460;11.868;2023-05-18T14:48:20;2.97;;;1.50;;
6358;SDS011;3212;51.460;11.868;2023-05-18T14:51:41;3.00;;;1.50;;
6358;SDS011;3212;51.460;11.868;2023-05-18T14:55:04;2.65;;;1.25;;
6358;SDS011;3212;51.460;11.868;2023-05-18T14:58:28;3.67;;;1.40;;
6358;SDS011;3212;51.460;11.868;2023-05-18T15:01:50;4.27;;;1.80;;
6358;SDS011;3212;51.460;11.868;2023-05-18T15:05:12;6.00;;;1.63;;
6358;SDS011;3212;51.460;11.868;2023-05-18T15:08:34;3.47;;;1.43;;
6358;SDS011;3212;51.460;11.868;2023-05-18T15:11:56;3.50;;;1.80;;
6358;SDS011;3212;51.460;11.868;2023-05-18T15:15:18;2.57;;;1.97;;
6358;SDS011;3212;51.460;11.868;2023-05-18T15:18:39;3.20;;;2.07;;
6358;SDS011;3212;51.460;11.868;2023-05-18T15:22:02;3.10;;;1.60;;
6358;SDS011;3212;51.460;11.868;2023-05-18T15:25:24;5.90;;;1.40;;
6358;SDS011;3212;51.460;11.868;2023-05-18T15:28:46;3.63;;;1.50;;
6358;SDS011;3212;51.460;11.868;2023-05-18T15:32:08;2.90;;;1.37;;
6358;SDS011;3212;51.460;11.868;2023-05-18T15:35:30;2.27;;;1.50;;
6358;SDS011;3212;51.460;11.868;2023-05-18T15:38:52;4.80;;;2.30;;
6358;SDS011;3212;51.460;11.868;2023-05-18T15:42:14;2.73;;;1.70;;
6358;SDS011;3212;51.460;11.868;2023-05-18T15:45:35;2.40;;;1.43;;
6358;SDS011;3212;51.460;11.868;2023-05-18T15:48:58;2.90;;;2.07;;
6358;SDS011;3212;51.460;11.868;2023-05-18T15:52:20;7.73;;;2.20;;
6358;SDS011;3212;51.460;11.868;2023-05-18T15:55:42;2.63;;;1.43;;
6358;SDS011;3212;51.460;11.868;2023-05-18T15:59:04;5.63;;;2.17;;
6358;SDS011;3212;51.460;11.868;2023-05-18T16:02:26;6.37;;;1.70;;
6358;SDS011;3212;51.460;11.868;2023-05-18T16:05:48;4.13;;;1.80;;
6358;SDS011;3212;51.460;11.868;2023-05-18T16:09:10;4.00;;;1.57;;
6358;SDS011;3212;51.460;11.868;2023-05-18T16:12:32;5.50;;;1.90;;
6358;SDS011;3212;51.460;11.868;2023-05-18T16:15:54;4.40;;;1.80;;
6358;SDS011;3212;51.460;11.868;2023-05-18T16:19:16;3.40;;;1.50;;
6358;SDS011;3212;51.460;11.868;2023-05-18T16:22:38;4.83;;;1.43;;
6358;SDS011;3212;51.460;11.868;2023-05-18T16:26:00;5.67;;;2.27;;
6358;SDS011;3212;51.460;11.868;2023-05-18T16:29:22;6.53;;;2.00;;
6358;SDS011;3212;51.460;11.868;2023-05-18T16:32:44;3.03;;;1.70;;
6358;SDS011;3212;51.460;11.868;2023-05-18T16:36:06;3.90;;;1.90;;
6358;SDS011;3212;51.460;11.868;2023-05-18T16:39:28;2.60;;;1.90;;
6358;SDS011;3212;51.460;11.868;2023-05-18T16:42:50;4.17;;;1.80;;
6358;SDS011;3212;51.460;11.868;2023-05-18T16:46:12;8.43;;;2.43;;
6358;SDS011;3212;51.460;11.868;2023-05-18T16:49:34;5.53;;;3.17;;
6358;SDS011;3212;51.460;11.868;2023-05-18T16:52:56;3.47;;;1.73;;
6358;SDS011;3212;51.460;11.868;2023-05-18T16:56:18;3.73;;;1.50;;
6358;SDS011;3212;51.460;11.868;2023-05-18T16:59:41;6.70;;;1.80;;
6358;SDS011;3212;51.460;11.868;2023-05-18T17:03:03;10.20;;;2.03;;
6358;SDS011;3212;51.460;11.868;2023-05-18T17:06:25;4.53;;;2.30;;
6358;SDS011;3212;51.460;11.868;2023-05-18T17:09:47;2.03;;;1.83;;
6358;SDS011;3212;51.460;11.868;2023-05-18T17:13:08;2.77;;;1.90;;
6358;SDS011;3212;51.460;11.868;2023-05-18T17:16:30;4.20;;;1.90;;
6358;SDS011;3212;51.460;11.868;2023-05-18T17:19:53;4.70;;;1.93;;
6358;SDS011;3212;51.460;11.868;2023-05-18T17:23:15;5.27;;;2.13;;
6358;SDS011;3212;51.460;11.868;2023-05-18T17:26:36;4.73;;;1.60;;
6358;SDS011;3212;51.460;11.868;2023-05-18T17:29:59;4.13;;;1.73;;
6358;SDS011;3212;51.460;11.868;2023-05-18T17:33:21;3.97;;;1.70;;
6358;SDS011;3212;51.460;11.868;2023-05-18T17:36:43;4.73;;;1.97;;
6358;SDS011;3212;51.460;11.868;2023-05-18T17:40:05;6.27;;;2.37;;
6358;SDS011;3212;51.460;11.868;2023-05-18T17:43:28;7.50;;;5.37;;
6358;SDS011;3212;51.460;11.868;2023-05-18T17:46:51;4.00;;;2.53;;
6358;SDS011;3212;51.460;11.868;2023-05-18T17:50:13;10.43;;;5.70;;
6358;SDS011;3212;51.460;11.868;2023-05-18T17:53:35;5.27;;;3.60;;
6358;SDS011;3212;51.460;11.868;2023-05-18T17:56:56;4.10;;;2.70;;
6358;SDS011;3212;51.460;11.868;2023-05-18T18:00:18;8.03;;;2.93;;
6358;SDS011;3212;51.460;11.868;2023-05-18T18:03:41;4.53;;;2.80;;
6358;SDS011;3212;51.460;11.868;2023-05-18T18:07:03;5.80;;;2.30;;
6358;SDS011;3212;51.460;11.868;2023-05-18T18:10:24;3.37;;;2.17;;
6358;SDS011;3212;51.460;11.868;2023-05-18T18:13:47;4.73;;;2.80;;
6358;SDS011;3212;51.460;11.868;2023-05-18T18:17:08;4.27;;;2.20;;
6358;SDS011;3212;51.460;11.868;2023-05-18T18:20:31;4.90;;;2.83;;
6358;SDS011;3212;51.460;11.868;2023-05-18T18:23:53;3.23;;;2.80;;
6358;SDS011;3212;51.460;11.868;2023-05-18T18:27:15;4.83;;;3.60;;
6358;SDS011;3212;51.460;11.868;2023-05-18T18:30:39;5.83;;;3.37;;
6358;SDS011;3212;51.460;11.868;2023-05-18T18:34:00;5.78;;;2.50;;
6358;SDS011;3212;51.460;11.868;2023-05-18T18:37:23;7.40;;;3.97;;
6358;SDS011;3212;51.460;11.868;2023-05-18T18:40:45;4.33;;;2.60;;
6358;SDS011;3212;51.460;11.868;2023-05-18T18:44:07;13.23;;;5.00;;
6358;SDS011;3212;51.460;11.868;2023-05-18T18:47:29;14.13;;;7.97;;
6358;SDS011;3212;51.460;11.868;2023-05-18T18:50:51;18.43;;;9.83;;
6358;SDS011;3212;51.460;11.868;2023-05-18T18:54:12;15.70;;;6.80;;
6358;SDS011;3212;51.460;11.868;2023-05-18T18:57:34;10.63;;;3.77;;
6358;SDS011;3212;51.460;11.868;2023-05-18T19:00:57;11.77;;;4.93;;
6358;SDS011;3212;51.460;11.868;2023-05-18T19:04:19;7.20;;;4.57;;
6358;SDS011;3212;51.460;11.868;2023-05-18T19:07:41;8.53;;;3.93;;
6358;SDS011;3212;51.460;11.868;2023-05-18T19:11:03;5.35;;;2.50;;
6358;SDS011;3212;51.460;11.868;2023-05-18T19:14:25;5.17;;;3.03;;
6358;SDS011;3212;51.460;11.868;2023-05-18T19:17:47;6.43;;;3.57;;
6358;SDS011;3212;51.460;11.868;2023-05-18T19:21:11;6.63;;;3.73;;
6358;SDS011;3212;51.460;11.868;2023-05-18T19:24:33;5.90;;;3.93;;
6358;SDS011;3212;51.460;11.868;2023-05-18T19:27:55;7.53;;;4.00;;
6358;SDS011;3212;51.460;11.868;2023-05-18T19:31:17;9.37;;;4.30;;
6358;SDS011;3212;51.460;11.868;2023-05-18T19:34:39;7.33;;;4.80;;
6358;SDS011;3212;51.460;11.868;2023-05-18T19:38:01;11.40;;;6.37;;
6358;SDS011;3212;51.460;11.868;2023-05-18T19:41:22;9.10;;;6.03;;
6358;SDS011;3212;51.460;11.868;2023-05-18T19:44:44;9.73;;;5.43;;
6358;SDS011;3212;51.460;11.868;2023-05-18T19:48:06;11.03;;;4.97;;
6358;SDS011;3212;51.460;11.868;2023-05-18T19:51:28;9.80;;;4.77;;
6358;SDS011;3212;51.460;11.868;2023-05-18T19:54:50;10.23;;;4.80;;
6358;SDS011;3212;51.460;11.868;2023-05-18T19:58:13;11.00;;;5.50;;
6358;SDS011;3212;51.460;11.868;2023-05-18T20:01:35;12.37;;;6.77;;
6358;SDS011;3212;51.460;11.868;2023-05-18T20:04:57;10.77;;;5.97;;
6358;SDS011;3212;51.460;11.868;2023-05-18T20:08:19;13.10;;;6.07;;
6358;SDS011;3212;51.460;11.868;2023-05-18T20:11:42;11.40;;;6.03;;
6358;SDS011;3212;51.460;11.868;2023-05-18T20:15:03;7.77;;;5.17;;
6358;SDS011;3212;51.460;11.868;2023-05-18T20:18:26;5.67;;;4.60;;
6358;SDS011;3212;51.460;11.868;2023-05-18T20:21:47;8.57;;;4.70;;
6358;SDS011;3212;51.460;11.868;2023-05-18T20:25:10;6.30;;;4.03;;
6358;SDS011;3212;51.460;11.868;2023-05-18T20:28:33;10.00;;;4.47;;
6358;SDS011;3212;51.460;11.868;2023-05-18T20:31:55;5.60;;;3.83;;
6358;SDS011;3212;51.460;11.868;2023-05-18T20:35:17;6.37;;;3.57;;
6358;SDS011;3212;51.460;11.868;2023-05-18T20:38:39;9.33;;;6.50;;
6358;SDS011;3212;51.460;11.868;2023-05-18T20:42:01;9.00;;;6.53;;
6358;SDS011;3212;51.460;11.868;2023-05-18T20:45:23;15.53;;;9.00;;
6358;SDS011;3212;51.460;11.868;2023-05-18T20:48:45;8.67;;;7.07;;